This is the latest recevied weather packets stored in our database for station/object K4IR. If no packets are shown the sender has not sent any weather packets the latest 10 day(s).
| Time | Temp. | Humidity | Pressure | Rain* | Wind** | Luminosity | Snow |
|---|---|---|---|---|---|---|---|
| 1787436869 | 26.67° C | 98% | 1013.3 hPa | 0 mm | - | 21 W/m² | - |
| 1787436265 | 26.67° C | 97% | 1013.1 hPa | 0 mm | - | 36 W/m² | - |
| 1787435662 | 26.67° C | 97% | 1013.1 hPa | 0 mm | - | 35 W/m² | - |
| 1787435059 | 26.67° C | 97% | 1013 hPa | 0.51 mm | - | 57 W/m² | - |
| 1787434457 | 26.67° C | 97% | 1013.1 hPa | 0.51 mm | - | 80 W/m² | - |
| 1787433855 | 26.11° C | 96% | 1012.9 hPa | 0 mm | - | 80 W/m² | - |
| 1787433251 | 26.11° C | 95% | 1013.1 hPa | 0 mm | - | 82 W/m² | - |
| 1787432649 | 26.67° C | 95% | 1013.5 hPa | 0 mm | - | 75 W/m² | - |
| 1787432043 | 26.67° C | 95% | 1013.5 hPa | 0 mm | - | 221 W/m² | - |
| 1787431444 | 25.56° C | 95% | 1013.9 hPa | 0 mm | - | 161 W/m² | - |
| 1787430842 | 26.11° C | 96% | 1013.9 hPa | 0 mm | - | 519 W/m² | - |
| 1787430240 | 26.11° C | 96% | 1013.8 hPa | 2.29 mm | - | 279 W/m² | - |
| 1787429636 | 25° C | 94% | 1013.7 hPa | 32.51 mm | - | 233 W/m² | - |
| 1787429034 | 26.67° C | 92% | 1013.5 hPa | 21.08 mm | - | 66 W/m² | - |
| 1787428429 | 28.33° C | 85% | 1013.5 hPa | 0 mm | - | 96 W/m² | - |
| 1787427824 | 28.89° C | 83% | 1013.8 hPa | 0 mm | - | 85 W/m² | - |
| 1787427223 | 28.89° C | 82% | 1013.6 hPa | 0 mm | - | 130 W/m² | - |
| 1787426619 | 28.89° C | 82% | 1013.7 hPa | 0 mm | - | 97 W/m² | - |
| 1787426017 | 29.44° C | 79% | 1014 hPa | 0 mm | - | 126 W/m² | - |
| 1787425415 | 29.44° C | 78% | 1013.9 hPa | 0 mm | - | 168 W/m² | - |
| 1787424815 | 31.11° C | 73% | 1014 hPa | 0 mm | - | 747 W/m² | - |
| 1787424211 | 30° C | 76% | 1014 hPa | 0 mm | - | 225 W/m² | - |
| 1787423609 | 30.56° C | 74% | 1014.1 hPa | 0 mm | - | 163 W/m² | - |
| 1787423006 | 30° C | 78% | 1014.1 hPa | 0 mm | - | 810 W/m² | - |
| 1787422404 | 29.44° C | 75% | 1014.3 hPa | 0 mm | - | 357 W/m² | - |
* Rain latest hour (hover to see other rain measurements)
** Current wind speed in m/s (hover to see current wind gust speed)